Time;durP1;ratioP1;P1;durP2;ratioP2;P2;SDS_P1;SDS_P2;PMS_P1;PMS_P2;Temp;Humidity;BMP_temperature;BMP_pressure;BME280_temperature;BME280_humidity;BME280_pressure;Samples;Min_cycle;Max_cycle;Signal;HPM_P1;HPM_P2
2023/10/28 00:00:18;;;;;;;5.35;1.70;;;;;;;8.24;74.34;91451.13;2055283;69;20281;-75
2023/10/28 00:02:45;;;;;;;3.97;1.88;;;;;;;8.17;75.19;91450.13;2055086;69;20134;-79
2023/10/28 00:05:11;;;;;;;4.57;1.63;;;;;;;8.27;74.57;91442.19;2055135;69;20530;-76
2023/10/28 00:07:41;;;;;;;4.18;1.60;;;;;;;8.29;74.82;91452.78;2057374;69;20137;-75
2023/10/28 00:10:09;;;;;;;2.70;1.75;;;;;;;7.95;75.78;91468.63;2054867;69;20332;-74
2023/10/28 00:12:35;;;;;;;2.50;1.70;;;;;;;8.11;75.53;91466.66;2054452;70;20138;-76
2023/10/28 00:15:01;;;;;;;1.88;1.42;;;;;;;8.33;74.96;91470.53;2055376;69;20153;-77
2023/10/28 00:17:27;;;;;;;2.28;1.55;;;;;;;7.82;76.71;91470.81;2055138;69;20228;-74
2023/10/28 00:19:54;;;;;;;3.30;1.60;;;;;;;8.19;75.81;91478.25;2054907;70;20291;-74
2023/10/28 00:22:21;;;;;;;5.53;1.67;;;;;;;8.32;75.11;91465.56;2054489;70;20216;-74
2023/10/28 00:24:47;;;;;;;3.40;1.38;;;;;;;8.44;74.97;91482.28;2054994;69;20223;-74
2023/10/28 00:27:14;;;;;;;1.80;1.30;;;;;;;8.39;74.70;91472.94;2055025;70;20684;-75
2023/10/28 00:29:40;;;;;;;2.35;1.30;;;;;;;8.49;73.87;91479.06;2055093;69;20150;-75
2023/10/28 00:32:06;;;;;;;4.63;1.50;;;;;;;8.60;73.39;91486.59;2054309;70;20640;-75
2023/10/28 00:34:32;;;;;;;3.65;1.83;;;;;;;8.63;74.14;91493.75;2057018;69;20142;-75
2023/10/28 00:36:58;;;;;;;2.95;1.60;;;;;;;8.39;74.85;91492.59;2051573;70;20149;-75
2023/10/28 00:39:24;;;;;;;2.40;1.80;;;;;;;8.19;75.87;91483.13;2054605;69;20217;-73
2023/10/28 00:41:50;;;;;;;3.83;1.73;;;;;;;8.55;74.46;91484.94;2054307;70;20588;-74
2023/10/28 00:44:16;;;;;;;9.95;1.67;;;;;;;8.54;75.06;91468.75;2054337;70;20628;-74
2023/10/28 00:46:42;;;;;;;1.30;1.20;;;;;;;8.53;74.14;91470.13;2054732;69;20213;-74
2023/10/28 00:49:09;;;;;;;3.60;1.40;;;;;;;8.40;74.14;91477.94;2054646;69;20176;-75
2023/10/28 00:51:35;;;;;;;2.25;1.45;;;;;;;8.44;74.48;91476.69;2054682;69;20598;-75
2023/10/28 00:54:01;;;;;;;1.92;1.30;;;;;;;8.63;73.66;91474.13;2054080;70;20185;-74
2023/10/28 00:56:29;;;;;;;1.80;1.10;;;;;;;8.63;72.74;91465.72;2054920;70;20582;-76
2023/10/28 00:58:56;;;;;;;3.13;1.30;;;;;;;8.70;72.52;91469.50;2054289;70;20178;-75
2023/10/28 01:01:21;;;;;;;2.75;1.27;;;;;;;8.72;72.22;91486.47;2051585;70;20264;-76
2023/10/28 01:03:47;;;;;;;1.42;1.20;;;;;;;8.77;72.36;91484.56;2054360;70;20227;-74
2023/10/28 01:06:14;;;;;;;2.35;1.27;;;;;;;8.45;72.17;91480.94;2054936;69;20150;-74
2023/10/28 01:08:39;;;;;;;2.30;1.40;;;;;;;8.60;72.83;91485.88;2054466;69;20138;-74
2023/10/28 01:11:05;;;;;;;1.83;1.13;;;;;;;8.49;72.65;91490.28;2054339;70;20154;-73
2023/10/28 01:13:31;;;;;;;2.92;1.70;;;;;;;8.34;74.48;91486.03;2054822;70;20185;-74
2023/10/28 01:15:59;;;;;;;2.55;1.40;;;;;;;8.35;74.77;91481.13;2051740;70;20696;-74
2023/10/28 01:18:25;;;;;;;3.08;1.60;;;;;;;8.55;73.77;91481.41;2051796;70;20237;-75
2023/10/28 01:20:51;;;;;;;2.92;1.40;;;;;;;8.75;73.53;91502.03;2054156;69;20191;-76
2023/10/28 01:23:17;;;;;;;3.08;1.33;;;;;;;8.75;73.64;91515.31;2054789;69;20598;-75
2023/10/28 01:25:44;;;;;;;2.28;1.50;;;;;;;8.78;73.82;91512.00;2056924;69;20134;-77
2023/10/28 01:28:11;;;;;;;1.55;1.20;;;;;;;8.86;73.13;91518.00;2054212;70;20494;-75
2023/10/28 01:30:37;;;;;;;1.75;1.23;;;;;;;8.86;73.07;91532.03;2054457;69;20187;-74
2023/10/28 01:33:03;;;;;;;2.20;1.33;;;;;;;8.53;74.66;91524.13;2054721;69;20491;-75
2023/10/28 01:35:29;;;;;;;4.13;1.70;;;;;;;8.40;75.44;91538.91;2054600;69;20176;-76
2023/10/28 01:37:56;;;;;;;5.00;1.90;;;;;;;8.18;77.07;91541.28;2055520;69;20161;-75
2023/10/28 01:40:22;;;;;;;2.40;1.50;;;;;;;8.36;76.76;91538.66;2054605;69;20723;-75
2023/10/28 01:42:47;;;;;;;4.35;1.92;;;;;;;8.51;75.27;91556.94;2054206;70;20146;-76
2023/10/28 01:45:15;;;;;;;2.72;1.40;;;;;;;8.69;75.42;91559.94;2054283;70;20157;-75
2023/10/28 01:47:42;;;;;;;2.85;1.85;;;;;;;8.72;75.50;91555.88;2054926;69;20181;-76
2023/10/28 01:50:11;;;;;;;4.55;1.63;;;;;;;8.84;74.86;91550.84;2054797;69;20161;-77
2023/10/28 01:52:37;;;;;;;3.20;1.50;;;;;;;8.85;75.50;91558.66;2054842;69;20142;-77
2023/10/28 01:55:03;;;;;;;3.08;1.50;;;;;;;8.77;75.61;91561.06;2054470;69;20228;-76
2023/10/28 01:57:29;;;;;;;4.55;1.50;;;;;;;8.95;74.98;91569.63;2054415;69;20145;-77
2023/10/28 01:59:55;;;;;;;3.25;1.60;;;;;;;8.91;75.92;91561.75;2053998;70;20138;-79
2023/10/28 02:02:20;;;;;;;3.58;1.45;;;;;;;8.94;76.45;91553.44;2054687;69;20157;-76
2023/10/28 02:04:47;;;;;;;2.15;1.50;;;;;;;8.95;76.51;91549.28;2054632;69;20177;-75
2023/10/28 02:07:12;;;;;;;4.75;1.70;;;;;;;8.99;76.07;91546.66;2056922;69;20256;-76
2023/10/28 02:09:38;;;;;;;1.33;1.20;;;;;;;8.98;75.53;91543.13;2054070;69;20145;-76
2023/10/28 02:12:04;;;;;;;2.15;1.42;;;;;;;8.78;76.52;91539.34;2054252;70;20154;-76
2023/10/28 02:14:30;;;;;;;2.35;1.42;;;;;;;8.70;77.16;91522.81;2054832;69;20590;-76
2023/10/28 02:16:56;;;;;;;2.90;1.40;;;;;;;8.63;77.04;91523.91;2054227;70;20260;-75
2023/10/28 02:19:22;;;;;;;2.03;1.40;;;;;;;8.59;76.26;91527.22;2054773;70;20681;-76
2023/10/28 02:21:49;;;;;;;2.35;1.60;;;;;;;8.42;77.96;91527.78;2054141;70;20158;-76
2023/10/28 02:24:17;;;;;;;1.88;1.33;;;;;;;8.18;78.47;91544.06;2054576;69;20209;-76
2023/10/28 02:26:43;;;;;;;2.75;1.70;;;;;;;8.34;77.92;91546.97;2054854;69;20150;-75
2023/10/28 02:29:09;;;;;;;4.28;1.67;;;;;;;8.21;78.68;91562.47;2054266;70;20142;-77
2023/10/28 02:31:34;;;;;;;2.17;1.40;;;;;;;8.28;79.14;91563.47;2054207;70;20622;-78
2023/10/28 02:34:00;;;;;;;2.30;1.38;;;;;;;8.25;78.48;91567.56;2054794;69;20157;-77
2023/10/28 02:36:26;;;;;;;2.20;1.50;;;;;;;8.12;78.67;91566.19;2054354;69;20177;-78
2023/10/28 02:38:52;;;;;;;2.10;1.42;;;;;;;8.19;78.94;91572.84;2054682;70;20487;-78
2023/10/28 02:41:19;;;;;;;4.55;1.77;;;;;;;7.69;82.20;91580.03;2054880;70;20153;-77
2023/10/28 02:43:45;;;;;;;4.88;1.60;;;;;;;7.64;80.78;91576.31;2054811;69;20146;-77
2023/10/28 02:46:20;;;;;;;3.22;1.50;;;;;;;7.43;81.11;91582.91;2054756;70;20178;-76
2023/10/28 02:48:46;;;;;;;2.85;1.85;;;;;;;7.68;80.96;91587.72;2057041;69;20150;-77
2023/10/28 02:51:12;;;;;;;2.42;1.50;;;;;;;7.76;80.23;91579.03;2057065;69;20169;-76
2023/10/28 02:53:37;;;;;;;4.32;1.80;;;;;;;7.77;79.70;91574.88;2054817;70;20150;-76
2023/10/28 02:56:04;;;;;;;2.35;1.60;;;;;;;7.76;79.70;91582.56;2054788;69;20211;-77
2023/10/28 02:58:30;;;;;;;2.08;1.40;;;;;;;7.71;79.20;91580.91;2048771;70;20136;-76
2023/10/28 03:00:57;;;;;;;2.33;1.40;;;;;;;7.73;79.26;91577.47;2057055;69;20606;-76
2023/10/28 03:03:26;;;;;;;3.00;1.40;;;;;;;7.75;79.75;91578.31;2054919;70;20154;-76
2023/10/28 03:05:53;;;;;;;3.03;1.35;;;;;;;7.68;79.56;91582.13;2051566;70;20157;-77
2023/10/28 03:08:21;;;;;;;1.77;1.33;;;;;;;7.31;82.85;91577.38;2054860;70;20161;-76
2023/10/28 03:10:46;;;;;;;4.20;1.60;;;;;;;7.59;80.33;91583.03;2054693;70;20161;-77
2023/10/28 03:13:12;;;;;;;2.28;1.70;;;;;;;7.49;80.45;91576.91;2054733;69;20150;-78
2023/10/28 03:15:38;;;;;;;3.58;2.30;;;;;;;7.45;80.21;91574.59;2055476;69;20146;-77
2023/10/28 03:18:03;;;;;;;2.97;2.22;;;;;;;7.44;79.96;91570.34;2054801;70;20160;-78
2023/10/28 03:20:29;;;;;;;3.28;1.40;;;;;;;7.48;80.10;91569.84;2057537;69;20146;-78
2023/10/28 03:22:55;;;;;;;2.65;1.50;;;;;;;7.46;81.01;91566.94;2055495;69;20162;-78
2023/10/28 03:25:21;;;;;;;8.63;2.00;;;;;;;7.30;80.96;91573.13;2055220;69;20281;-77
2023/10/28 03:27:47;;;;;;;7.13;2.10;;;;;;;7.27;81.54;91568.00;2054657;70;20610;-77
2023/10/28 03:30:13;;;;;;;3.67;1.80;;;;;;;7.26;81.65;91570.09;2054675;70;20142;-78
2023/10/28 03:32:39;;;;;;;2.45;1.70;;;;;;;7.37;81.06;91588.16;2054795;69;20149;-78
2023/10/28 03:35:06;;;;;;;3.95;1.90;;;;;;;7.42;80.48;91578.63;2055207;69;20327;-79
2023/10/28 03:37:35;;;;;;;5.60;1.58;;;;;;;7.45;79.87;91579.47;2054669;70;20154;-77
2023/10/28 03:40:01;;;;;;;3.10;1.75;;;;;;;7.29;79.89;91568.88;2054637;69;20256;-77
2023/10/28 03:42:27;;;;;;;6.43;1.70;;;;;;;7.24;80.33;91572.78;2052004;70;20613;-78
2023/10/28 03:44:53;;;;;;;1.88;1.38;;;;;;;7.16;81.50;91580.75;2055202;70;20624;-78
2023/10/28 03:47:18;;;;;;;2.33;1.50;;;;;;;7.25;80.61;91579.84;2055189;69;20150;-77
2023/10/28 03:49:44;;;;;;;2.45;1.70;;;;;;;6.87;81.65;91579.16;2055132;69;20221;-78
2023/10/28 03:52:10;;;;;;;4.95;2.67;;;;;;;7.10;81.05;91572.75;2054745;70;20150;-77
2023/10/28 03:54:39;;;;;;;4.35;1.60;;;;;;;7.07;81.19;91573.97;2055104;69;20138;-78
2023/10/28 03:57:06;;;;;;;2.13;1.30;;;;;;;7.02;81.71;91579.97;2055341;70;20150;-78
2023/10/28 03:59:32;;;;;;;2.05;1.60;;;;;;;7.20;80.99;91580.25;2055214;69;20134;-78
2023/10/28 04:01:58;;;;;;;2.97;2.20;;;;;;;6.98;81.15;91572.06;2055208;69;20138;-77
2023/10/28 04:04:24;;;;;;;3.45;1.92;;;;;;;7.16;80.90;91580.00;2054605;70;20525;-78
2023/10/28 04:06:55;;;;;;;4.72;1.63;;;;;;;6.56;83.01;91590.69;2055155;70;20210;-80
2023/10/28 04:09:22;;;;;;;4.80;2.40;;;;;;;6.90;82.96;91587.66;2055003;69;20506;-78
2023/10/28 04:11:48;;;;;;;2.17;1.52;;;;;;;6.90;82.13;91596.78;2055253;69;20154;-77
2023/10/28 04:14:13;;;;;;;2.63;1.73;;;;;;;6.92;82.27;91588.53;2055127;69;20153;-77
2023/10/28 04:16:40;;;;;;;4.28;2.00;;;;;;;7.12;80.94;91597.31;2054594;70;20207;-78
2023/10/28 04:19:06;;;;;;;3.00;1.88;;;;;;;7.03;81.83;91592.59;2055179;70;20614;-77
2023/10/28 04:21:31;;;;;;;2.22;1.67;;;;;;;7.05;81.44;91604.63;2055049;70;20224;-77
2023/10/28 04:23:57;;;;;;;2.72;1.48;;;;;;;7.01;81.72;91607.22;2055015;69;20134;-77
2023/10/28 04:26:24;;;;;;;11.68;8.07;;;;;;;7.05;81.78;91603.91;2055148;70;20230;-77
2023/10/28 04:28:50;;;;;;;6.85;4.47;;;;;;;7.04;82.18;91610.84;2055146;69;20236;-77
2023/10/28 04:31:17;;;;;;;6.93;4.63;;;;;;;7.13;81.51;91613.47;2054766;69;20148;-77
2023/10/28 04:33:43;;;;;;;5.15;3.22;;;;;;;7.11;82.14;91610.56;2055115;69;20170;-78
2023/10/28 04:36:11;;;;;;;6.82;3.53;;;;;;;7.19;81.86;91606.75;2055186;69;20177;-77
2023/10/28 04:38:39;;;;;;;1.88;1.70;;;;;;;7.16;83.36;91589.13;2054868;70;20176;-78
2023/10/28 04:41:04;;;;;;;2.78;1.35;;;;;;;7.25;83.11;91599.44;2055333;70;20598;-77
2023/10/28 04:43:30;;;;;;;6.25;2.80;;;;;;;6.81;83.70;91578.81;2054708;69;20144;-76
2023/10/28 04:45:55;;;;;;;5.47;2.97;;;;;;;7.17;83.09;91593.38;2055064;69;20577;-76
2023/10/28 04:48:21;;;;;;;3.78;2.53;;;;;;;7.21;82.03;91585.22;2054481;70;20615;-76
2023/10/28 04:50:48;;;;;;;3.33;2.58;;;;;;;7.24;82.47;91589.59;2055002;69;20150;-76
2023/10/28 04:53:14;;;;;;;2.58;1.63;;;;;;;7.35;82.04;91594.38;2054511;69;20150;-76
2023/10/28 04:55:41;;;;;;;2.25;1.63;;;;;;;7.46;81.55;91589.31;2054665;69;20150;-77
2023/10/28 04:58:07;;;;;;;3.65;2.05;;;;;;;6.98;84.37;91602.84;2054987;70;20134;-76
2023/10/28 05:00:32;;;;;;;4.70;2.00;;;;;;;7.23;82.62;91590.91;2055027;69;20672;-76
2023/10/28 05:02:58;;;;;;;5.00;2.25;;;;;;;7.33;82.58;91583.09;2055122;69;20616;-76
2023/10/28 05:05:25;;;;;;;4.85;2.60;;;;;;;7.08;84.06;91585.88;2055014;70;20154;-76
2023/10/28 05:07:51;;;;;;;2.33;1.95;;;;;;;7.27;83.49;91587.63;2054518;70;20164;-79
2023/10/28 05:10:16;;;;;;;6.13;1.88;;;;;;;7.36;82.22;91570.63;2054312;70;20173;-77
2023/10/28 05:12:42;;;;;;;2.83;1.60;;;;;;;7.44;82.23;91587.16;2054260;70;20186;-76
2023/10/28 05:15:09;;;;;;;4.25;3.28;;;;;;;7.29;82.84;91599.66;2055070;69;20148;-77
2023/10/28 05:17:36;;;;;;;5.50;3.65;;;;;;;7.40;81.82;91603.72;2055166;69;20160;-76
2023/10/28 05:20:06;;;;;;;7.78;3.10;;;;;;;7.54;80.72;91607.31;2055025;70;20610;-76
2023/10/28 05:22:41;;;;;;;6.45;3.40;;;;;;;7.48;81.55;91604.19;2055130;69;20172;-76
2023/10/28 05:25:08;;;;;;;3.92;2.80;;;;;;;7.55;81.29;91619.94;2054913;69;20610;-77
2023/10/28 05:27:35;;;;;;;4.85;2.70;;;;;;;7.56;80.58;91612.28;2054503;70;20612;-77
2023/10/28 05:30:00;;;;;;;7.38;3.28;;;;;;;7.07;82.62;91623.63;2051688;70;20586;-76
2023/10/28 05:32:26;;;;;;;5.53;2.80;;;;;;;6.83;85.28;91603.41;2054935;70;20145;-76
2023/10/28 05:34:52;;;;;;;5.38;2.78;;;;;;;7.09;82.90;91595.72;2054936;69;20221;-76
2023/10/28 05:37:18;;;;;;;7.22;2.80;;;;;;;7.10;82.33;91600.72;2054994;69;20153;-78
2023/10/28 05:39:45;;;;;;;7.65;3.95;;;;;;;7.08;82.06;91597.06;2054820;69;20153;-78
2023/10/28 05:42:12;;;;;;;9.13;6.07;;;;;;;6.99;81.33;91612.69;2054393;70;20236;-78
2023/10/28 05:44:39;;;;;;;4.88;2.40;;;;;;;6.73;82.89;91611.19;2054962;69;20145;-77
2023/10/28 05:47:04;;;;;;;6.13;2.80;;;;;;;6.47;84.12;91616.72;2054963;70;20205;-78
2023/10/28 05:49:30;;;;;;;4.88;2.80;;;;;;;6.31;85.23;91622.09;2055043;70;20166;-77
2023/10/28 05:51:56;;;;;;;5.90;3.17;;;;;;;6.43;85.49;91629.75;2054836;69;20221;-78
2023/10/28 05:54:23;;;;;;;9.15;4.65;;;;;;;6.40;86.21;91636.56;2057054;69;20567;-76
2023/10/28 05:56:48;;;;;;;5.13;3.10;;;;;;;6.57;84.76;91638.97;2054910;69;20594;-76
2023/10/28 05:59:15;;;;;;;3.08;2.20;;;;;;;6.79;82.83;91643.03;2054452;70;20150;-77
2023/10/28 06:01:41;;;;;;;8.05;3.15;;;;;;;6.75;82.62;91651.19;2054938;69;20149;-79
2023/10/28 06:04:06;;;;;;;4.55;2.70;;;;;;;6.72;82.34;91643.31;2054532;69;20153;-77
2023/10/28 06:06:33;;;;;;;5.68;2.80;;;;;;;6.36;84.87;91640.56;2054928;69;20166;-77
2023/10/28 06:08:58;;;;;;;6.15;2.90;;;;;;;6.47;84.31;91643.97;2054908;69;20487;-77
2023/10/28 06:11:24;;;;;;;3.75;2.90;;;;;;;6.62;83.31;91643.44;2054391;70;20184;-79
2023/10/28 06:13:51;;;;;;;6.45;2.80;;;;;;;6.62;83.87;91644.16;2054827;69;20550;-79
2023/10/28 06:16:18;;;;;;;5.80;2.85;;;;;;;6.74;83.19;91632.97;2054899;70;20191;-78
2023/10/28 06:18:45;;;;;;;4.13;2.90;;;;;;;6.83;82.09;91643.28;2054921;69;20621;-77
2023/10/28 06:21:11;;;;;;;4.90;3.70;;;;;;;6.57;83.15;91648.06;2054440;70;20542;-76
2023/10/28 06:23:39;;;;;;;9.02;3.83;;;;;;;6.69;82.85;91652.91;2054955;69;20142;-76
2023/10/28 06:26:10;;;;;;;5.10;3.30;;;;;;;6.74;82.52;91660.94;2054438;70;20154;-76
2023/10/28 06:28:37;;;;;;;11.00;6.53;;;;;;;6.63;83.22;91661.66;2054343;70;20157;-78
2023/10/28 06:31:03;;;;;;;7.90;4.30;;;;;;;6.80;82.89;91664.06;2054326;70;20145;-77
2023/10/28 06:33:29;;;;;;;5.85;3.95;;;;;;;6.87;82.39;91679.88;2054995;70;20591;-76
2023/10/28 06:35:55;;;;;;;6.47;3.88;;;;;;;6.90;82.80;91682.78;2054964;69;20157;-77
2023/10/28 06:38:21;;;;;;;14.65;7.80;;;;;;;6.77;83.54;91673.69;2054656;69;20224;-77
2023/10/28 06:40:48;;;;;;;9.55;5.90;;;;;;;6.92;82.50;91682.88;2054801;70;20142;-77
2023/10/28 06:43:17;;;;;;;10.05;6.28;;;;;;;6.98;81.88;91675.59;2055097;69;20237;-78
2023/10/28 06:45:43;;;;;;;12.85;7.95;;;;;;;6.99;82.08;91685.44;2055342;69;20146;-79
2023/10/28 06:48:10;;;;;;;12.65;8.25;;;;;;;7.03;81.97;91687.75;2055280;69;20138;-78
2023/10/28 06:50:37;;;;;;;13.20;7.95;;;;;;;7.03;82.01;91682.88;2055533;69;20154;-77
2023/10/28 06:53:05;;;;;;;9.95;6.13;;;;;;;7.07;81.95;91699.91;2055305;69;20226;-77
2023/10/28 06:55:30;;;;;;;10.40;6.63;;;;;;;7.08;81.90;91706.22;2054712;69;20146;-77
2023/10/28 06:57:57;;;;;;;15.25;7.47;;;;;;;7.07;81.59;91707.56;2055334;70;20140;-77
2023/10/28 07:00:29;;;;;;;12.02;8.32;;;;;;;7.08;81.49;91701.34;2055349;70;20587;-77
2023/10/28 07:02:56;;;;;;;14.55;8.20;;;;;;;7.13;81.78;91716.31;2054900;70;20146;-76
2023/10/28 07:05:24;;;;;;;10.27;7.07;;;;;;;6.83;82.62;91707.63;2055454;69;20170;-76
2023/10/28 07:07:50;;;;;;;10.18;6.43;;;;;;;6.92;82.71;91703.22;2054797;70;20287;-77
2023/10/28 07:10:16;;;;;;;6.82;5.10;;;;;;;7.07;82.51;91713.88;2055166;69;20171;-76
2023/10/28 07:12:42;;;;;;;6.82;4.20;;;;;;;7.28;81.50;91703.84;2054777;70;20578;-77
2023/10/28 07:15:11;;;;;;;6.25;4.43;;;;;;;7.30;81.59;91687.88;2055345;69;20142;-77
2023/10/28 07:17:39;;;;;;;11.00;5.75;;;;;;;7.52;81.26;91693.28;2054806;69;20233;-78
2023/10/28 07:20:07;;;;;;;11.50;7.57;;;;;;;7.52;81.54;91693.28;2055277;69;20197;-77
2023/10/28 07:22:34;;;;;;;7.93;5.38;;;;;;;7.27;82.54;91708.72;2055244;69;20145;-78
2023/10/28 07:25:01;;;;;;;7.35;5.18;;;;;;;7.58;81.82;91707.63;2054625;70;20138;-79
2023/10/28 07:27:27;;;;;;;7.75;4.75;;;;;;;7.78;80.99;91719.94;2055260;69;20216;-79
2023/10/28 07:29:54;;;;;;;6.50;5.55;;;;;;;7.59;81.68;91709.06;2054611;70;20158;-79
2023/10/28 07:32:20;;;;;;;10.50;5.70;;;;;;;7.70;81.32;91707.56;2055233;69;20134;-79
2023/10/28 07:34:45;;;;;;;7.60;5.70;;;;;;;7.74;81.19;91714.09;2055311;69;20149;-77
2023/10/28 07:37:14;;;;;;;8.63;6.03;;;;;;;7.69;81.38;91706.81;2055257;69;20541;-78
2023/10/28 07:39:41;;;;;;;19.88;11.05;;;;;;;7.43;82.01;91714.50;2054292;70;20158;-78
2023/10/28 07:42:09;;;;;;;14.60;9.07;;;;;;;7.10;83.63;91726.66;2055331;70;20150;-78
2023/10/28 07:44:36;;;;;;;11.40;7.65;;;;;;;7.11;83.74;91738.59;2055205;69;20146;-77
2023/10/28 07:47:03;;;;;;;13.32;7.78;;;;;;;7.15;83.30;91747.22;2055522;70;20176;-78
2023/10/28 07:49:29;;;;;;;18.13;10.68;;;;;;;7.41;82.24;91753.59;2055139;69;20186;-77
2023/10/28 07:51:55;;;;;;;21.38;11.70;;;;;;;7.47;82.19;91756.00;2055128;69;20299;-78
2023/10/28 07:54:22;;;;;;;16.98;10.13;;;;;;;7.46;81.23;91758.06;2055026;70;20178;-79
2023/10/28 07:56:48;;;;;;;18.35;10.25;;;;;;;7.42;81.90;91757.09;2055211;70;20154;-77
2023/10/28 07:59:13;;;;;;;14.40;8.13;;;;;;;7.43;81.47;91752.97;2055084;69;20157;-81
2023/10/28 08:01:41;;;;;;;6.82;4.90;;;;;;;7.47;81.28;91756.75;2055231;69;20150;-79
2023/10/28 08:04:08;;;;;;;6.93;4.32;;;;;;;7.57;80.24;91748.19;2055158;70;20578;-78
2023/10/28 08:06:35;;;;;;;6.80;3.67;;;;;;;7.66;81.31;91747.28;2054803;70;20144;-79
2023/10/28 08:09:06;;;;;;;5.32;3.50;;;;;;;8.21;83.15;91755.19;2054991;69;20216;-80
2023/10/28 08:11:31;;;;;;;8.68;5.57;;;;;;;8.43;82.56;91747.25;2055156;69;20622;-79
2023/10/28 08:13:57;;;;;;;10.88;7.60;;;;;;;8.70;82.60;91749.34;2055209;69;20145;-80
2023/10/28 08:16:23;;;;;;;7.95;6.53;;;;;;;8.97;81.94;91743.75;2055165;69;20145;-80
2023/10/28 08:18:50;;;;;;;10.07;7.22;;;;;;;9.13;82.43;91753.00;2054692;70;20158;-80
2023/10/28 08:21:16;;;;;;;14.82;9.13;;;;;;;9.48;81.35;91754.00;2054627;70;20192;-81
2023/10/28 08:23:46;;;;;;;10.40;6.35;;;;;;;9.62;80.99;91740.66;2055033;69;20162;-78
2023/10/28 08:26:17;;;;;;;6.22;4.25;;;;;;;9.71;78.95;91738.97;2055330;69;20527;-77
2023/10/28 08:28:50;;;;;;;5.90;3.90;;;;;;;10.15;75.99;91748.81;2055093;70;20170;-78
2023/10/28 08:31:17;;;;;;;5.30;3.67;;;;;;;10.23;76.56;91743.56;2055193;69;20142;-79
2023/10/28 08:33:49;;;;;;;9.68;4.40;;;;;;;10.73;75.10;91741.63;2057451;69;20158;-79
2023/10/28 08:36:17;;;;;;;7.50;4.50;;;;;;;11.05;74.66;91752.88;2057371;69;20622;-78
2023/10/28 08:38:45;;;;;;;6.95;4.70;;;;;;;11.49;72.42;91742.06;2054879;70;20180;-78
2023/10/28 08:41:16;;;;;;;6.88;4.43;;;;;;;11.13;71.20;91741.94;2054642;70;20526;-79
2023/10/28 08:43:45;;;;;;;6.38;4.38;;;;;;;11.90;71.86;91750.13;2055207;69;20165;-78
2023/10/28 08:46:12;;;;;;;2.97;2.45;;;;;;;11.64;68.95;91756.13;2051914;70;20219;-76
2023/10/28 08:48:38;;;;;;;4.50;2.30;;;;;;;11.98;69.11;91750.47;2055133;69;20271;-81
2023/10/28 08:51:08;;;;;;;2.97;2.10;;;;;;;12.27;68.47;91757.22;2054657;70;20606;-81
2023/10/28 08:53:36;;;;;;;6.07;4.53;;;;;;;13.00;67.02;91760.00;2055089;69;20254;-79
2023/10/28 08:56:03;;;;;;;6.50;3.65;;;;;;;13.03;66.48;91747.41;2055146;69;20168;-79
2023/10/28 08:58:29;;;;;;;4.30;3.08;;;;;;;13.06;66.33;91746.13;2055058;69;20140;-79
2023/10/28 09:01:01;;;;;;;4.00;2.95;;;;;;;13.45;65.46;91739.75;2055050;69;20126;-77
2023/10/28 09:03:28;;;;;;;3.90;2.83;;;;;;;13.59;63.21;91738.78;2055021;69;20146;-77
2023/10/28 09:05:55;;;;;;;4.40;2.90;;;;;;;13.31;62.75;91739.25;2054791;69;20138;-77
2023/10/28 09:08:23;;;;;;;6.25;3.15;;;;;;;13.72;62.86;91732.19;2055059;69;20229;-77
2023/10/28 09:10:49;;;;;;;7.00;2.70;;;;;;;14.08;62.16;91737.59;2055024;69;20149;-77
2023/10/28 09:13:16;;;;;;;3.97;2.80;;;;;;;14.03;62.34;91736.75;2055079;69;20154;-78
2023/10/28 09:15:43;;;;;;;3.90;2.30;;;;;;;13.79;61.89;91747.22;2055037;69;20158;-78
2023/10/28 09:18:10;;;;;;;2.75;1.63;;;;;;;13.82;61.74;91746.66;2055182;69;20156;-81
2023/10/28 09:20:41;;;;;;;4.82;1.75;;;;;;;13.73;62.30;91744.94;2055094;69;20171;-80
2023/10/28 09:23:07;;;;;;;1.85;1.58;;;;;;;14.47;61.92;91765.00;2055052;69;20609;-81
2023/10/28 09:25:35;;;;;;;1.85;1.60;;;;;;;14.86;59.53;91760.56;2054919;69;20134;-83
2023/10/28 09:28:07;;;;;;;2.85;1.65;;;;;;;14.62;58.31;91760.56;2055045;69;20495;-82
2023/10/28 09:30:46;;;;;;;2.58;1.92;;;;;;;14.98;57.75;91758.84;2055073;69;20149;-79
2023/10/28 09:33:12;;;;;;;2.00;1.80;;;;;;;15.61;57.88;91753.47;2055270;69;20142;-81
2023/10/28 09:35:41;;;;;;;1.70;1.52;;;;;;;15.06;55.08;91747.00;2055017;69;20184;-81
2023/10/28 09:38:08;;;;;;;2.50;1.55;;;;;;;15.93;56.94;91748.69;2054919;69;20154;-84
2023/10/28 09:40:34;;;;;;;1.67;1.40;;;;;;;14.59;57.27;91745.59;2055001;69;20241;-82
2023/10/28 09:43:02;;;;;;;2.58;1.55;;;;;;;14.82;57.53;91735.69;2055123;69;20608;-79
2023/10/28 09:45:29;;;;;;;2.47;1.52;;;;;;;15.06;56.28;91737.78;2054897;69;20161;-78
2023/10/28 09:47:57;;;;;;;2.45;1.70;;;;;;;16.24;54.45;91755.16;2054893;69;20150;-79
2023/10/28 09:50:27;;;;;;;2.00;1.60;;;;;;;17.02;54.23;91743.47;2054865;69;20174;-77
2023/10/28 09:52:54;;;;;;;1.95;1.60;;;;;;;18.42;51.86;91750.47;2054984;69;20154;-78
2023/10/28 09:55:30;;;;;;;5.80;1.92;;;;;;;18.66;51.69;91741.59;2054749;69;20134;-79
2023/10/28 09:58:04;;;;;;;2.70;1.90;;;;;;;18.49;49.86;91744.16;2054929;69;20233;-79
2023/10/28 10:00:31;;;;;;;2.95;2.03;;;;;;;17.90;51.12;91739.56;2055037;69;20150;-78
2023/10/28 10:03:07;;;;;;;2.58;1.98;;;;;;;18.71;49.82;91735.28;2051747;70;20197;-82
2023/10/28 10:05:39;;;;;;;2.58;2.00;;;;;;;19.69;49.16;91741.59;2054934;69;20274;-80
2023/10/28 10:08:15;;;;;;;2.67;1.98;;;;;;;19.45;49.11;91739.88;2051476;70;20600;-81
2023/10/28 10:10:47;;;;;;;2.08;1.88;;;;;;;18.52;48.74;91748.50;2054871;69;20608;-82
2023/10/28 10:13:15;;;;;;;4.57;3.70;;;;;;;18.99;49.06;91748.53;2055117;69;20188;-82
2023/10/28 10:15:52;;;;;;;3.83;2.67;;;;;;;20.47;45.61;91732.44;2054468;70;20237;-83
2023/10/28 10:18:30;;;;;;;3.03;2.42;;;;;;;19.83;45.81;91738.91;2054403;70;20130;-80
2023/10/28 10:21:09;;;;;;;2.45;1.98;;;;;;;21.04;45.24;91744.34;2054451;70;20138;-82
2023/10/28 10:23:46;;;;;;;2.22;1.48;;;;;;;22.68;41.18;91736.38;2054860;69;20142;-84
2023/10/28 10:26:21;;;;;;;1.30;1.20;;;;;;;21.73;41.81;91729.00;2055115;69;20165;-88
2023/10/28 10:28:47;;;;;;;2.00;1.20;;;;;;;20.35;43.31;91729.47;2054895;69;20187;-80
2023/10/28 10:31:12;;;;;;;1.70;1.20;;;;;;;22.74;40.32;91731.38;2054880;69;20178;-82
2023/10/28 10:33:38;;;;;;;1.35;1.13;;;;;;;22.37;40.48;91727.75;2057133;69;20138;-82
2023/10/28 10:36:18;;;;;;;1.10;0.95;;;;;;;23.16;38.20;91721.34;2055040;69;20234;-77
2023/10/28 10:38:45;;;;;;;1.67;0.90;;;;;;;24.66;38.15;91721.47;2054656;70;20162;-80
2023/10/28 10:41:22;;;;;;;2.05;1.10;;;;;;;24.32;37.06;91723.09;2054780;69;20529;-79
2023/10/28 10:43:48;;;;;;;1.98;0.80;;;;;;;25.57;36.46;91711.34;2054377;70;20140;-79
2023/10/28 10:46:14;;;;;;;0.93;0.85;;;;;;;26.62;35.44;91705.75;2055012;69;20162;-77
2023/10/28 10:48:39;;;;;;;1.90;0.80;;;;;;;27.55;34.32;91717.94;2054871;69;20150;-77
2023/10/28 10:51:05;;;;;;;1.02;0.80;;;;;;;28.49;31.84;91727.00;2054889;69;20146;-76
2023/10/28 10:53:41;;;;;;;1.63;0.88;;;;;;;28.67;32.89;91726.59;2054811;69;20158;-82
2023/10/28 10:56:17;;;;;;;0.73;0.60;;;;;;;29.84;31.37;91727.44;2054903;70;20173;-76
2023/10/28 10:58:43;;;;;;;0.60;0.60;;;;;;;29.65;30.13;91724.31;2054977;70;20148;-76
2023/10/28 11:01:12;;;;;;;0.77;0.70;;;;;;;30.81;29.32;91723.28;2054796;70;20142;-76
2023/10/28 11:03:40;;;;;;;3.13;1.15;;;;;;;30.21;28.18;91715.56;2054807;69;20173;-77
2023/10/28 11:06:06;;;;;;;0.50;0.43;;;;;;;29.07;29.52;91716.28;2054874;69;20221;-82
2023/10/28 11:08:33;;;;;;;2.90;1.55;;;;;;;31.14;28.20;91705.53;2051437;70;20161;-76
2023/10/28 11:10:59;;;;;;;1.67;0.95;;;;;;;29.66;28.25;91711.22;2054884;69;20144;-80
2023/10/28 11:13:25;;;;;;;0.55;0.50;;;;;;;30.52;27.92;91700.16;2054867;69;20142;-81
2023/10/28 11:15:51;;;;;;;0.52;0.40;;;;;;;33.15;26.47;91702.81;2054836;69;20130;-79
2023/10/28 11:18:17;;;;;;;0.40;0.40;;;;;;;34.51;25.09;91707.38;2054853;69;20785;-78
2023/10/28 11:20:43;;;;;;;0.38;0.38;;;;;;;34.23;25.02;91721.72;2054726;69;20150;-79
2023/10/28 11:23:10;;;;;;;0.73;0.52;;;;;;;34.42;25.81;91698.25;2054594;69;20146;-81
2023/10/28 11:25:36;;;;;;;1.27;0.40;;;;;;;36.54;23.84;91716.59;2054807;70;20183;-77
2023/10/28 11:28:06;;;;;;;0.75;0.40;;;;;;;37.83;22.73;91719.78;2054785;69;20162;-76
2023/10/28 11:30:32;;;;;;;0.75;0.60;;;;;;;36.95;23.67;91717.38;2055095;69;20622;-75
2023/10/28 11:33:03;;;;;;;0.88;0.63;;;;;;;37.98;22.27;91716.72;2055287;69;20134;-75
2023/10/28 11:35:30;;;;;;;1.90;0.60;;;;;;;38.02;21.40;91710.63;2055347;69;20781;-75
2023/10/28 11:37:56;;;;;;;0.88;0.60;;;;;;;33.27;23.74;91692.88;2055315;69;20291;-76